Circle City, Arizona
Current Conditions -  °F | °C
As of 6:47 AM on Saturday 25 Oct 2014 (Local Time) from KGEU Reporting Station
Scattered Clouds Scattered Clouds  
Wind Chill: 66°   Ceiling: Unl
Heat Index: 66°   Visibility: 20mi
Dew Point: 52°   Wind: 5mph
Humidity: 60%   Direction: 10°N
Pressure: 30.01"   Gusts: NA
Location:  33.8631°N, 112.556°W
Report Text: KGEU 251347Z 01004KT 20SM SCT200 19/11 A3001 RMK FIRST
Loading
Personal Weather Stations






























Interactive Weather Map
Tropical Storm Tracking
New forecast layout! Learn more

10-Day Weather Forecast

Advertisements
Track Severe Weather on mobile